createdAt,value
2023-05-12T00:02:08.218Z,98365.13
2023-05-12T00:04:37.402Z,98369.16
2023-05-12T00:07:07.397Z,98371.16
2023-05-12T00:09:36.478Z,98374.69
2023-05-12T00:12:05.836Z,98383.28
2023-05-12T00:14:36.382Z,98377.81
2023-05-12T00:17:06.676Z,98381.41
2023-05-12T00:19:36.697Z,98381.81
2023-05-12T00:22:05.728Z,98382.53
2023-05-12T00:24:34.732Z,98381.31
2023-05-12T00:27:04.398Z,98391.72
2023-05-12T00:29:34.362Z,98388.50
2023-05-12T00:32:04.059Z,98386.25
2023-05-12T00:34:33.236Z,98388.88
2023-05-12T00:37:02.323Z,98389.66
2023-05-12T00:39:31.502Z,98397.25
2023-05-12T00:42:01.037Z,98400.78
2023-05-12T00:44:30.383Z,98391.72
2023-05-12T00:46:59.812Z,98394.31
2023-05-12T00:49:28.933Z,98386.28
2023-05-12T00:51:59.104Z,98397.84
2023-05-12T00:54:29.021Z,98395.06
2023-05-12T00:56:58.390Z,98392.41
2023-05-12T00:59:29.682Z,98395.75
2023-05-12T01:01:58.843Z,98400.09
2023-05-12T01:04:29.949Z,98393.22
2023-05-12T01:07:25.327Z,98409.66
2023-05-12T01:09:58.643Z,98403.63
2023-05-12T01:12:28.835Z,98402.81
2023-05-12T01:14:58.609Z,98400.59
2023-05-12T01:17:32.032Z,98410.63
2023-05-12T01:20:04.639Z,98406.44
2023-05-12T01:22:34.158Z,98409.41
2023-05-12T01:25:07.616Z,98405.19
2023-05-12T01:27:39.672Z,98408.88
2023-05-12T01:30:12.259Z,98414.09
2023-05-12T01:32:42.280Z,98405.03
2023-05-12T01:35:11.714Z,98413.84
2023-05-12T01:37:46.342Z,98409.00
2023-05-12T01:40:16.447Z,98403.78
2023-05-12T01:42:45.714Z,98424.50
2023-05-12T01:45:15.322Z,98419.91
2023-05-12T01:47:44.641Z,98432.19
2023-05-12T01:50:13.738Z,98428.59
2023-05-12T01:52:44.596Z,98433.19
2023-05-12T01:55:16.349Z,98430.41
2023-05-12T01:57:57.735Z,98428.44
2023-05-12T02:00:27.354Z,98430.84
2023-05-12T02:02:59.110Z,98434.06
2023-05-12T02:05:28.492Z,98433.53
2023-05-12T02:07:57.562Z,98425.09
2023-05-12T02:10:26.748Z,98429.13
2023-05-12T02:12:56.123Z,98428.50
2023-05-12T02:15:25.637Z,98432.88
2023-05-12T02:17:55.464Z,98433.25
2023-05-12T02:20:26.237Z,98430.41
2023-05-12T02:22:55.542Z,98433.00
2023-05-12T02:25:24.651Z,98428.44
2023-05-12T02:27:53.701Z,98425.66
2023-05-12T02:30:22.854Z,98424.03
2023-05-12T02:32:52.132Z,98432.38
2023-05-12T02:35:21.566Z,98432.66
2023-05-12T02:37:50.652Z,98427.25
2023-05-12T02:40:20.166Z,98425.66
2023-05-12T02:42:49.427Z,98426.00
2023-05-12T02:45:18.450Z,98428.34
2023-05-12T02:47:48.483Z,98424.75
2023-05-12T02:50:17.919Z,98438.31
2023-05-12T02:52:47.617Z,98443.88
2023-05-12T02:55:17.468Z,98438.66
2023-05-12T02:57:46.546Z,98440.47
2023-05-12T03:00:15.933Z,98439.13
2023-05-12T03:02:47.717Z,98437.16
2023-05-12T03:05:17.024Z,98445.56
2023-05-12T03:07:48.656Z,98438.31
2023-05-12T03:10:18.925Z,98440.22
2023-05-12T03:12:49.465Z,98438.94
2023-05-12T03:15:18.669Z,98445.75
2023-05-12T03:17:47.754Z,98443.72
2023-05-12T03:20:17.384Z,98442.91
2023-05-12T03:22:46.612Z,98446.16
2023-05-12T03:25:15.820Z,98448.13
2023-05-12T03:27:44.913Z,98443.16
2023-05-12T03:30:14.463Z,98441.47
2023-05-12T03:32:44.398Z,98440.47
2023-05-12T03:35:14.193Z,98445.47
2023-05-12T03:37:43.280Z,98451.16
2023-05-12T03:40:18.468Z,98452.28
2023-05-12T03:42:49.899Z,98451.84
2023-05-12T03:45:20.570Z,98449.75
2023-05-12T03:47:50.767Z,98457.31
2023-05-12T03:50:20.216Z,98454.66
2023-05-12T03:52:49.578Z,98463.59
2023-05-12T03:55:18.725Z,98460.91
2023-05-12T03:57:49.777Z,98459.66
2023-05-12T04:00:19.903Z,98459.78
2023-05-12T04:02:49.223Z,98471.53
2023-05-12T04:05:18.367Z,98458.38
2023-05-12T04:07:47.540Z,98465.50
2023-05-12T04:10:16.712Z,98462.38
2023-05-12T04:12:45.832Z,98455.59
2023-05-12T04:15:15.326Z,98457.69
2023-05-12T04:17:44.616Z,98462.34
2023-05-12T04:20:14.596Z,98464.16
2023-05-12T04:22:44.334Z,98475.44
2023-05-12T04:25:13.495Z,98475.88
2023-05-12T04:27:43.054Z,98471.03
2023-05-12T04:30:12.180Z,98471.06
2023-05-12T04:32:43.736Z,98469.47
2023-05-12T04:35:13.657Z,98467.44
2023-05-12T04:37:43.014Z,98480.31
2023-05-12T04:40:12.748Z,98479.75
2023-05-12T04:42:41.838Z,98472.28
2023-05-12T04:45:12.673Z,98467.50
2023-05-12T04:47:41.786Z,98473.34
2023-05-12T04:50:13.036Z,98467.91
2023-05-12T04:52:42.128Z,98469.53
2023-05-12T04:55:11.234Z,98474.38
2023-05-12T04:57:41.522Z,98481.63
2023-05-12T05:00:12.808Z,98480.00
2023-05-12T05:02:42.300Z,98485.03
2023-05-12T05:05:11.935Z,98486.25
2023-05-12T05:07:41.905Z,98479.41
2023-05-12T05:10:11.161Z,98487.63
2023-05-12T05:12:42.234Z,98493.47
2023-05-12T05:15:11.679Z,98488.63
2023-05-12T05:17:43.164Z,98479.56
2023-05-12T05:20:15.355Z,98481.19
2023-05-12T05:22:44.813Z,98483.16
2023-05-12T05:25:14.341Z,98491.38
2023-05-12T05:27:43.417Z,98486.47
2023-05-12T05:30:12.928Z,98488.03
2023-05-12T05:33:55.744Z,98485.09
2023-05-12T05:36:26.953Z,98492.03
2023-05-12T05:38:57.005Z,98493.19
2023-05-12T05:41:26.255Z,98490.31
2023-05-12T05:43:55.704Z,98487.00
2023-05-12T05:46:25.018Z,98485.78
2023-05-12T05:48:54.336Z,98488.53
2023-05-12T05:51:23.793Z,98481.00
2023-05-12T05:53:52.862Z,98478.47
2023-05-12T05:56:23.106Z,98483.59
2023-05-12T05:58:52.581Z,98485.72
2023-05-12T06:01:21.648Z,98488.66
2023-05-12T06:03:50.793Z,98492.63
2023-05-12T06:06:20.146Z,98494.06
2023-05-12T06:08:49.255Z,98493.91
2023-05-12T06:11:18.297Z,98492.69
2023-05-12T06:13:47.411Z,98489.22
2023-05-12T06:16:16.586Z,98484.94
2023-05-12T06:18:45.715Z,98478.03
2023-05-12T06:21:14.938Z,98479.31
2023-05-12T06:23:44.048Z,98474.63
2023-05-12T06:26:15.716Z,98480.94
2023-05-12T06:28:44.956Z,98484.75
2023-05-12T06:31:14.118Z,98477.56
2023-05-12T06:33:43.260Z,98475.63
2023-05-12T06:36:12.425Z,98477.09
2023-05-12T06:38:41.573Z,98474.53
2023-05-12T06:41:10.834Z,98467.16
2023-05-12T06:43:39.870Z,98462.44
2023-05-12T06:46:09.211Z,98471.19
2023-05-12T06:48:38.356Z,98463.56
2023-05-12T06:51:07.545Z,98459.59
2023-05-12T06:53:39.585Z,98452.41
2023-05-12T06:56:08.837Z,98457.13
2023-05-12T06:58:37.883Z,98458.16
2023-05-12T07:01:06.964Z,98455.22
2023-05-12T07:03:36.078Z,98450.94
2023-05-12T07:06:05.247Z,98446.22
2023-05-12T07:08:34.392Z,98444.31
2023-05-12T07:11:03.438Z,98445.53
2023-05-12T07:13:32.527Z,98439.91
2023-05-12T07:16:01.644Z,98435.53
2023-05-12T07:21:00.925Z,98433.97
2023-05-12T07:23:30.919Z,98442.31
2023-05-12T07:26:00.412Z,98434.00
2023-05-12T07:28:32.544Z,98434.06
2023-05-12T07:31:02.917Z,98428.09
2023-05-12T07:33:32.017Z,98427.13
2023-05-12T07:36:01.729Z,98425.56
2023-05-12T07:38:31.750Z,98423.38
2023-05-12T07:41:01.002Z,98426.78
2023-05-12T07:43:30.297Z,98425.47
2023-05-12T07:46:01.043Z,98421.03
2023-05-12T07:48:30.639Z,98426.91
2023-05-12T07:50:59.724Z,98429.44
2023-05-12T07:53:28.769Z,98427.94
2023-05-12T07:55:57.832Z,98432.25
2023-05-12T07:58:26.837Z,98426.75
2023-05-12T08:00:57.897Z,98424.91
2023-05-12T08:03:27.116Z,98419.66
2023-05-12T08:05:56.312Z,98422.09
2023-05-12T08:08:25.341Z,98416.00
2023-05-12T08:10:54.425Z,98422.94
2023-05-12T08:13:23.430Z,98410.75
2023-05-12T08:15:52.679Z,98417.09
2023-05-12T08:18:21.805Z,98423.22
2023-05-12T08:20:50.974Z,98418.97
2023-05-12T08:23:20.088Z,98419.22
2023-05-12T08:25:49.940Z,98414.63
2023-05-12T08:28:19.018Z,98410.94
2023-05-12T08:30:48.302Z,98412.78
2023-05-12T08:33:17.395Z,98409.88
2023-05-12T08:35:46.433Z,98412.84
2023-05-12T08:38:15.897Z,98413.31
2023-05-12T08:40:59.201Z,98415.38
2023-05-12T08:43:40.348Z,98415.69
2023-05-12T08:46:10.158Z,98421.06
2023-05-12T08:48:40.627Z,98416.56
2023-05-12T08:51:11.960Z,98418.22
2023-05-12T08:53:42.277Z,98424.84
2023-05-12T08:58:45.679Z,98416.59
2023-05-12T09:01:16.801Z,98422.97
2023-05-12T09:03:46.119Z,98418.75
2023-05-12T09:06:15.740Z,98415.31
2023-05-12T09:08:45.589Z,98410.25
2023-05-12T09:11:16.436Z,98417.16
2023-05-12T09:14:04.431Z,98424.06
2023-05-12T09:16:41.349Z,98420.88
2023-05-12T09:19:13.559Z,98418.19
2023-05-12T09:21:42.760Z,98411.03
2023-05-12T09:24:11.857Z,98412.63
2023-05-12T09:26:48.236Z,98416.34
2023-05-12T09:29:27.849Z,98415.28
2023-05-12T09:32:02.343Z,98427.22
2023-05-12T09:34:35.711Z,98425.66
2023-05-12T09:37:06.739Z,98419.78
2023-05-12T09:39:36.509Z,98424.03
2023-05-12T09:42:11.570Z,98425.59
2023-05-12T09:44:41.334Z,98415.81
2023-05-12T09:47:10.778Z,98426.16
2023-05-12T09:49:46.641Z,98419.03
2023-05-12T09:52:16.245Z,98417.69
2023-05-12T09:54:45.513Z,98411.34
2023-05-12T09:57:16.949Z,98409.19
2023-05-12T09:59:47.631Z,98411.84
2023-05-12T10:02:18.304Z,98406.53
2023-05-12T10:04:50.850Z,98411.06
2023-05-12T10:07:23.197Z,98408.13
2023-05-12T10:09:55.075Z,98406.78
2023-05-12T10:12:24.217Z,98408.13
2023-05-12T10:14:54.854Z,98403.34
2023-05-12T10:17:26.629Z,98406.00
2023-05-12T10:19:56.933Z,98414.50
2023-05-12T10:22:28.966Z,98417.94
2023-05-12T10:24:58.242Z,98406.25
2023-05-12T10:27:28.054Z,98408.91
2023-05-12T10:29:57.234Z,98414.50
2023-05-12T10:32:27.148Z,98403.88
2023-05-12T10:35:07.047Z,98410.25
2023-05-12T10:37:37.710Z,98409.72
2023-05-12T10:40:07.904Z,98410.53
2023-05-12T10:42:39.023Z,98410.78
2023-05-12T10:45:17.777Z,98411.84
2023-05-12T10:47:47.766Z,98409.47
2023-05-12T10:50:27.224Z,98417.69
2023-05-12T10:52:57.633Z,98411.31
2023-05-12T10:55:33.766Z,98422.44
2023-05-12T10:58:09.768Z,98420.28
2023-05-12T11:00:50.410Z,98419.47
2023-05-12T11:03:25.813Z,98411.72
2023-05-12T11:06:03.433Z,98424.41
2023-05-12T11:08:37.710Z,98411.16
2023-05-12T11:11:07.187Z,98412.97
2023-05-12T11:13:36.407Z,98415.06
2023-05-12T11:16:05.800Z,98418.56
2023-05-12T11:18:34.929Z,98411.91
2023-05-12T11:21:11.321Z,98422.72
2023-05-12T11:23:40.423Z,98421.59
2023-05-12T11:26:17.375Z,98430.06
2023-05-12T11:28:46.567Z,98418.09
2023-05-12T11:31:20.359Z,98428.50
2023-05-12T11:33:55.924Z,98422.16
2023-05-12T11:36:37.106Z,98425.09
2023-05-12T11:39:07.158Z,98424.00
2023-05-12T11:41:36.902Z,98425.66
2023-05-12T11:44:20.018Z,98429.63
2023-05-12T11:46:59.582Z,98422.50
2023-05-12T11:49:30.798Z,98432.38
2023-05-12T11:52:01.616Z,98431.31
2023-05-12T11:54:31.429Z,98430.25
2023-05-12T11:57:01.337Z,98416.50
2023-05-12T11:59:35.300Z,98422.16
2023-05-12T12:02:04.955Z,98441.56
2023-05-12T12:04:41.996Z,98427.75
2023-05-12T12:07:11.321Z,98421.13
2023-05-12T12:09:41.372Z,98418.22
2023-05-12T12:12:11.649Z,98434.94
2023-05-12T12:14:41.717Z,98433.59
2023-05-12T12:17:10.837Z,98413.09
2023-05-12T12:19:40.041Z,98428.69
2023-05-12T12:22:09.108Z,98427.09
2023-05-12T12:24:38.185Z,98426.31
2023-05-12T12:27:07.218Z,98430.59
2023-05-12T12:29:36.381Z,98434.56
2023-05-12T12:32:05.789Z,98437.94
2023-05-12T12:34:34.990Z,98433.41
2023-05-12T12:37:04.270Z,98431.06
2023-05-12T12:39:33.395Z,98432.75
2023-05-12T12:42:03.255Z,98427.97
2023-05-12T12:44:32.342Z,98431.97
2023-05-12T12:47:01.402Z,98434.28
2023-05-12T12:49:30.516Z,98425.75
2023-05-12T12:51:59.569Z,98434.50
2023-05-12T12:54:28.680Z,98432.66
2023-05-12T12:56:58.457Z,98421.53
2023-05-12T12:59:27.625Z,98428.44
2023-05-12T13:01:59.944Z,98417.03
2023-05-12T13:04:29.161Z,98430.31
2023-05-12T13:06:58.228Z,98417.03
2023-05-12T13:09:27.916Z,98425.56
2023-05-12T13:11:58.117Z,98417.09
2023-05-12T13:14:27.297Z,98425.59
2023-05-12T13:16:56.366Z,98417.41
2023-05-12T13:19:25.498Z,98420.84
2023-05-12T13:21:54.559Z,98415.53
2023-05-12T13:24:24.086Z,98426.56
2023-05-12T13:26:53.256Z,98420.38
2023-05-12T13:29:22.299Z,98417.13
2023-05-12T13:31:51.463Z,98420.00
2023-05-12T13:34:21.382Z,98417.66
2023-05-12T13:36:50.644Z,98426.91
2023-05-12T13:39:19.917Z,98417.78
2023-05-12T13:41:49.031Z,98418.22
2023-05-12T13:44:18.150Z,98424.50
2023-05-12T13:46:47.339Z,98435.50
2023-05-12T13:49:16.570Z,98435.44
2023-05-12T13:51:46.012Z,98442.56
2023-05-12T13:54:15.071Z,98448.22
2023-05-12T13:56:44.076Z,98445.53
2023-05-12T13:59:13.159Z,98453.16
2023-05-12T14:01:44.188Z,98447.28
2023-05-12T14:04:14.351Z,98441.25
2023-05-12T14:06:43.462Z,98450.31
2023-05-12T14:09:12.521Z,98466.16
2023-05-12T14:11:41.676Z,98464.78
2023-05-12T14:14:10.906Z,98471.47
2023-05-12T14:16:40.070Z,98469.22
2023-05-12T14:19:09.289Z,98466.97
2023-05-12T14:21:39.713Z,98475.47
2023-05-12T14:24:10.130Z,98474.09
2023-05-12T14:26:39.305Z,98470.66
2023-05-12T14:29:08.928Z,98474.56
2023-05-12T14:31:38.196Z,98477.53
2023-05-12T14:34:09.220Z,98478.66
2023-05-12T14:36:38.380Z,98485.06
2023-05-12T14:39:08.837Z,98490.50
2023-05-12T14:41:38.093Z,98502.13
2023-05-12T14:44:07.148Z,98506.50
2023-05-12T14:46:36.153Z,98506.19
2023-05-12T14:49:10.688Z,98506.50
2023-05-12T14:51:40.646Z,98508.25
2023-05-12T14:54:21.862Z,98508.94
2023-05-12T14:56:54.282Z,98518.63
2023-05-12T14:59:23.364Z,98515.81
2023-05-12T15:01:52.604Z,98515.94
2023-05-12T15:04:21.762Z,98524.81
2023-05-12T15:06:50.961Z,98520.97
2023-05-12T15:09:20.060Z,98526.91
2023-05-12T15:11:49.639Z,98525.19
2023-05-12T15:14:18.670Z,98526.38
2023-05-12T15:16:47.843Z,98531.44
2023-05-12T15:19:17.582Z,98548.28
2023-05-12T15:21:46.926Z,98543.72
2023-05-12T15:24:16.210Z,98550.25
2023-05-12T15:26:45.954Z,98555.63
2023-05-12T15:29:15.003Z,98555.75
2023-05-12T15:31:44.141Z,98547.97
2023-05-12T15:34:13.411Z,98551.75
2023-05-12T15:36:45.518Z,98551.78
2023-05-12T15:39:16.262Z,98561.06
2023-05-12T15:41:45.426Z,98566.22
2023-05-12T15:44:14.514Z,98570.56
2023-05-12T15:46:43.862Z,98578.97
2023-05-12T15:49:13.126Z,98583.50
2023-05-12T15:51:42.177Z,98588.16
2023-05-12T15:54:11.452Z,98590.97
2023-05-12T15:56:40.524Z,98578.56
2023-05-12T15:59:11.541Z,98582.66
2023-05-12T16:01:40.655Z,98580.34
2023-05-12T16:04:09.857Z,98582.84
2023-05-12T16:06:39.168Z,98581.25
2023-05-12T16:09:09.436Z,98576.78
2023-05-12T16:11:38.689Z,98576.78
2023-05-12T16:14:07.741Z,98586.06
2023-05-12T16:16:38.353Z,98588.81
2023-05-12T16:19:07.513Z,98578.31
2023-05-12T16:21:36.688Z,98577.28
2023-05-12T16:24:08.786Z,98588.00
2023-05-12T16:26:38.359Z,98593.28
2023-05-12T16:29:07.468Z,98588.81
2023-05-12T16:31:36.695Z,98581.94
2023-05-12T16:34:05.856Z,98593.66
2023-05-12T16:36:35.259Z,98597.09
2023-05-12T16:39:04.430Z,98601.88
2023-05-12T16:41:33.479Z,98600.06
2023-05-12T16:44:02.809Z,98598.91
2023-05-12T16:46:32.859Z,98602.56
2023-05-12T16:49:02.476Z,98601.38
2023-05-12T16:51:33.029Z,98603.00
2023-05-12T16:54:02.503Z,98594.38
2023-05-12T16:56:31.573Z,98609.50
2023-05-12T16:59:01.254Z,98607.91
2023-05-12T17:01:31.742Z,98612.78
2023-05-12T17:04:01.053Z,98603.97
2023-05-12T17:06:30.924Z,98618.34
2023-05-12T17:08:59.984Z,98620.59
2023-05-12T17:11:29.071Z,98617.03
2023-05-12T17:13:58.113Z,98616.91
2023-05-12T17:16:27.213Z,98619.16
2023-05-12T17:21:28.414Z,98622.28
2023-05-12T17:23:57.640Z,98628.34
2023-05-12T17:26:27.970Z,98631.19
2023-05-12T17:28:57.085Z,98634.88
2023-05-12T17:31:26.262Z,98640.34
2023-05-12T17:33:55.560Z,98631.50
2023-05-12T17:36:24.858Z,98645.06
2023-05-12T17:38:54.399Z,98640.28
2023-05-12T17:41:23.411Z,98639.28
2023-05-12T17:43:52.495Z,98643.75
2023-05-12T17:46:21.691Z,98643.75
2023-05-12T17:48:50.752Z,98655.50
2023-05-12T17:51:20.909Z,98648.84
2023-05-12T17:53:50.003Z,98653.72
2023-05-12T17:56:19.059Z,98658.63
2023-05-12T17:58:48.176Z,98661.28
2023-05-12T18:01:17.331Z,98661.72
2023-05-12T18:03:46.471Z,98650.03
2023-05-12T18:06:15.945Z,98650.81
2023-05-12T18:08:45.285Z,98652.06
2023-05-12T18:11:14.653Z,98662.13
2023-05-12T18:13:43.759Z,98659.72
2023-05-12T18:16:18.223Z,98667.38
2023-05-12T18:18:57.131Z,98670.63
2023-05-12T18:21:26.389Z,98676.88
2023-05-12T18:23:55.840Z,98675.88
2023-05-12T18:26:25.028Z,98677.69
2023-05-12T18:28:54.341Z,98670.88
2023-05-12T18:31:23.500Z,98680.38
2023-05-12T18:33:53.241Z,98687.66
2023-05-12T18:36:22.495Z,98687.50
2023-05-12T18:38:51.723Z,98690.34
2023-05-12T18:41:21.080Z,98688.56
2023-05-12T18:43:50.326Z,98689.22
2023-05-12T18:46:19.660Z,98687.22
2023-05-12T18:48:48.804Z,98691.09
2023-05-12T18:51:17.963Z,98696.34
2023-05-12T18:53:47.693Z,98698.34
2023-05-12T18:56:16.771Z,98697.97
2023-05-12T18:58:45.949Z,98701.19
2023-05-12T19:01:17.044Z,98700.19
2023-05-12T19:03:46.409Z,98699.38
2023-05-12T19:06:15.923Z,98707.25
2023-05-12T19:08:45.404Z,98712.09
2023-05-12T19:11:14.492Z,98722.59
2023-05-12T19:13:45.456Z,98710.31
2023-05-12T19:16:15.237Z,98729.69
2023-05-12T19:18:44.907Z,98720.00
2023-05-12T19:21:14.086Z,98727.06
2023-05-12T19:23:43.300Z,98718.19
2023-05-12T19:26:12.427Z,98707.69
2023-05-12T19:28:41.647Z,98707.69
2023-05-12T19:31:10.806Z,98708.50
2023-05-12T19:33:39.827Z,98713.94
2023-05-12T19:36:11.252Z,98714.56
2023-05-12T19:38:43.572Z,98711.31
2023-05-12T19:41:12.720Z,98711.72
2023-05-12T19:43:41.915Z,98711.16
2023-05-12T19:46:11.129Z,98710.56
2023-05-12T19:48:40.565Z,98709.56
2023-05-12T19:51:09.686Z,98711.38
2023-05-12T19:53:38.832Z,98704.50
2023-05-12T19:56:07.911Z,98712.16
2023-05-12T19:58:37.144Z,98703.69
2023-05-12T20:01:06.217Z,98704.31
2023-05-12T20:03:35.358Z,98696.03
2023-05-12T20:06:04.904Z,98703.69
2023-05-12T20:08:33.953Z,98709.75
2023-05-12T20:11:03.130Z,98703.69
2023-05-12T20:13:32.279Z,98707.94
2023-05-12T20:16:01.463Z,98697.63
2023-05-12T20:18:30.649Z,98704.50
2023-05-12T20:20:59.778Z,98705.72
2023-05-12T20:23:28.881Z,98713.00
2023-05-12T20:25:58.220Z,98707.16
2023-05-12T20:28:28.294Z,98712.41
2023-05-12T20:30:57.424Z,98709.78
2023-05-12T20:33:26.624Z,98707.16
2023-05-12T20:35:55.691Z,98706.56
2023-05-12T20:38:24.877Z,98711.59
2023-05-12T20:40:54.040Z,98708.16
2023-05-12T20:43:23.092Z,98700.50
2023-05-12T20:45:52.288Z,98702.94
2023-05-12T20:48:21.349Z,98710.78
2023-05-12T20:50:50.500Z,98710.19
2023-05-12T20:53:19.619Z,98704.34
2023-05-12T20:55:49.105Z,98710.59
2023-05-12T20:58:18.273Z,98709.00
2023-05-12T21:00:47.324Z,98706.75
2023-05-12T21:03:17.310Z,98706.16
2023-05-12T21:05:49.278Z,98708.97
2023-05-12T21:08:18.472Z,98715.25
2023-05-12T21:10:48.539Z,98716.84
2023-05-12T21:13:17.883Z,98711.03
2023-05-12T21:15:46.939Z,98711.03
2023-05-12T21:18:16.044Z,98713.41
2023-05-12T21:20:45.224Z,98713.66
2023-05-12T21:23:14.433Z,98708.97
2023-05-12T21:25:43.619Z,98711.03
2023-05-12T21:28:12.667Z,98706.59
2023-05-12T21:30:41.877Z,98705.97
2023-05-12T21:33:11.118Z,98711.84
2023-05-12T21:35:40.237Z,98717.88
2023-05-12T21:38:10.135Z,98717.09
2023-05-12T21:40:39.293Z,98713.66
2023-05-12T21:43:08.372Z,98712.84
2023-05-12T21:45:37.400Z,98715.88
2023-05-12T21:48:06.763Z,98715.47
2023-05-12T21:50:35.883Z,98722.75
2023-05-12T21:53:04.938Z,98721.16
2023-05-12T21:55:33.994Z,98728.22
2023-05-12T21:58:03.096Z,98720.75
2023-05-12T22:00:32.150Z,98721.94
2023-05-12T22:03:01.304Z,98724.81
2023-05-12T22:05:30.650Z,98721.56
2023-05-12T22:08:00.793Z,98726.22
2023-05-12T22:10:31.960Z,98724.59
2023-05-12T22:13:01.013Z,98711.91
2023-05-12T22:15:30.245Z,98720.78
2023-05-12T22:17:59.557Z,98717.56
2023-05-12T22:20:28.953Z,98716.34
2023-05-12T22:22:58.034Z,98705.06
2023-05-12T22:25:27.071Z,98715.97
2023-05-12T22:27:56.116Z,98718.38
2023-05-12T22:30:25.173Z,98712.94
2023-05-12T22:32:54.250Z,98716.56
2023-05-12T22:35:23.438Z,98717.78
2023-05-12T22:37:53.430Z,98717.19
2023-05-12T22:40:23.276Z,98712.38
2023-05-12T22:42:53.126Z,98709.56
2023-05-12T22:45:22.198Z,98712.38
2023-05-12T22:47:51.266Z,98701.09
2023-05-12T22:50:21.251Z,98707.94
2023-05-12T22:52:50.606Z,98705.09
2023-05-12T22:55:19.702Z,98699.06
2023-05-12T22:57:49.992Z,98698.69
2023-05-12T23:00:19.432Z,98704.09
2023-05-12T23:02:48.600Z,98693.81
2023-05-12T23:05:17.911Z,98692.63
2023-05-12T23:07:47.057Z,98696.25
2023-05-12T23:10:16.186Z,98699.06
2023-05-12T23:12:45.454Z,98689.19
2023-05-12T23:15:14.524Z,98701.88
2023-05-12T23:17:43.605Z,98694.00
2023-05-12T23:20:13.010Z,98696.63
2023-05-12T23:22:42.137Z,98696.63
2023-05-12T23:25:11.220Z,98697.44
2023-05-12T23:27:40.292Z,98696.25
2023-05-12T23:30:09.469Z,98693.63
2023-05-12T23:32:38.686Z,98693.22
2023-05-12T23:35:09.502Z,98684.94
2023-05-12T23:37:38.639Z,98695.25
2023-05-12T23:40:08.223Z,98692.00
2023-05-12T23:42:37.314Z,98692.44
2023-05-12T23:45:07.109Z,98690.22
2023-05-12T23:47:36.271Z,98692.63
2023-05-12T23:50:06.178Z,98691.84
2023-05-12T23:52:35.364Z,98694.22
2023-05-12T23:55:04.800Z,98682.75
2023-05-12T23:57:33.903Z,98690.22
